Adam Morgan

Recruteur - Reading
8 Déc 2028
Vendredi
Processus

Personnalité

Adaptabilité (15) Ambition (19) Controverse (13) Loyauté (10) Pression (8) Professionnalisme (9) Sportivité (1) Tempérament (3)

Profil

Style d'entraînement Démocratique
Diplôme National B
Détermination 12
Gestion des joueurs 7
Motivation 4
Discipline 4
Satisfaction professionnelle
100%
Fatigue
0%
Rôle Recruteur
Salaire 46.1K p/s
Contrat 14.03.2030

Performance

Comportement Bon
Efficacité de l'entraînement
35%
Développement des joueurs
45%
Prévention des blessures
20%
Mise en place tactique
35%

Événements récents

A participé à une réunion de recrutement 7j
A participé à une réunion de recrutement 14j
A participé à une réunion de recrutement 21j
A participé à une réunion de recrutement 28j
A participé à une réunion de recrutement 35j
A participé à une réunion de recrutement 42j
A participé à une réunion de recrutement 49j
A participé à une réunion de recrutement 56j

Suivi en cours

101
Joueur Club Statut Capacité Confiance Observé Dernière observation Dernier vote
Ossama Ashley Salford City Perdu 114 / 104 76% 1 14.08.2028 -
Miguel Figueiredo Benfica Actif 126 / 128 40% 5 12.06.2028 -
Jan Bürger Northampton Town Actif 127 / 121 40% 4 12.06.2028 -
Jake Evans Crewe Alexandra Actif 110 / 126 40% 1 07.06.2028 -
Ryan Kavuma-McQueen Accrington Stanley Actif 114 / 134 40% 1 07.06.2028 -
Leo Pecover Swindon Town Actif 92 / 107 40% 1 07.06.2028 -
Abubakar Adams Aduana Stars Actif 79 / 84 40% 3 31.05.2028 -
Daniel Banjaqui Benfica Actif 125 / 126 40% 5 30.05.2028 -
Simone Suppa Virtus Verona Actif 83 / 90 40% 3 30.05.2028 -
Jorthy Mokio ADO Den Haag Actif 136 / 134 40% 1 30.05.2028 -
Giovanni Leoni Lincoln City Actif 146 / 145 40% 2 29.05.2028 -
Bernardo Lima Porto Actif 115 / 120 40% 1 29.05.2028 -
Martim Cunha Porto Actif 107 / 111 40% 3 28.05.2028 -
Riquelme Thompson-Jones Accrington Stanley Actif 115 / 119 40% 3 28.05.2028 -
Christos Mouzakitis Hull City Actif 139 / 144 40% 4 27.05.2028 -
Gideon Manaseh Ikorodu City Actif 87 / 96 40% 3 27.05.2028 -
Tyler Fletcher Rotherham United Actif 117 / 121 40% 1 27.05.2028 -
Andrea Cogoni Cosenza Actif 113 / 112 40% 2 26.05.2028 -
Josh Nichols Oldham Athletic Actif 124 / 124 40% 4 25.05.2028 -
Eko Solomon Leixões Actif 83 / 92 40% 3 21.05.2028 -
Joel Ezra Enyimba Actif 104 / 109 40% 3 18.05.2028 -
Andrey Ivlev Nizhniy Novgorod Actif 116 / 120 40% 3 18.05.2028 -
Amine Boukamir Charleroi Actif 100 / 109 40% 2 17.05.2028 -
Tobías Ramírez River Plate Actif 127 / 134 40% 1 15.05.2028 -
Kiani Inge Groningen Actif 111 / 117 40% 3 13.05.2028 -
Nicolò Moranduzzo Renate Actif 89 / 99 40% 3 12.05.2028 -
Musa Danjuma Umraniyespor Actif 94 / 98 40% 2 01.05.2028 -
Celías Ingenthron Platense Actif 117 / 124 40% 1 01.05.2028 -
Artem Nosachev Spartak Moscow Actif 70 / 82 40% 2 30.04.2028 -
Ronan Kpakio AC Milan Actif 120 / 130 40% 2 27.04.2028 -
Olivier Leroux Mouscron Actif 104 / 113 40% 3 23.04.2028 -
Bence Szakos Aris Actif 87 / 93 40% 1 22.04.2028 -
Hosea Michael Remo Stars Actif 89 / 97 40% 2 19.04.2028 -
Nicolas Sport Recife Actif 109 / 118 40% 1 06.04.2028 -
Claudio Martey Pianese Actif 93 / 94 40% 1 05.04.2028 -
Lebogang Manyama SuperSport United Actif 121 / 103 40% 2 29.05.2027 -
Charlie Webster Burton Albion Actif 113 / 112 40% 1 29.05.2027 -
Federico Zuccon Foggia Actif 120 / 120 40% 1 29.05.2027 -
Idris El Mizouni Leyton Orient Actif 121 / 123 40% 1 27.05.2027 -
Max Bird Birmingham Actif 130 / 131 40% 4 26.05.2027 -
Joel Bagan Cardiff City Actif 115 / 106 40% 1 26.05.2027 -
Darlin Yongwa Norwich City Actif 128 / 132 40% 1 26.05.2027 -
Aidan Morris Middlesbrough Actif 132 / 127 40% 2 25.05.2027 -
Archie Collins Peterborough United Actif 121 / 116 40% 1 25.05.2027 -
Oliver Skipp Leicester City Actif 139 / 135 40% 1 25.05.2027 -
Ethan Pye Stockport County Actif 124 / 111 40% 2 24.05.2027 -
Jay Matete Milton Keynes Dons Actif 112 / 120 40% 1 24.05.2027 -
Lucas Da Cunha Como Actif 148 / 141 40% 2 23.05.2027 -
Lewis Bate Stockport County Actif 122 / 124 40% 2 22.05.2027 -
Gonçalo Franco Swansea City Actif 122 / 119 40% 1 22.05.2027 -
Harvey Vale Queens Park Rangers Actif 121 / 119 40% 1 22.05.2027 -
Xavier Simons Bolton Wanderers Actif 126 / 120 40% 2 21.05.2027 -
Alfie Gilchrist West Bromwich Albion Actif 127 / 122 40% 1 21.05.2027 -
Max Johnston Derby County Actif 122 / 123 40% 2 16.05.2027 -
Brian De Keersmaecker Oxford United Actif 126 / 122 40% 2 15.05.2027 -
Ahmed Zaki Masr El Makasa Actif 75 / 91 40% 1 15.05.2027 -
Adam Randell Bristol City Actif 127 / 135 40% 1 13.05.2027 -
Jacques Ekomié Wrexham Actif 127 / 124 40% 2 12.05.2027 -
Christoph Klarer Birmingham Actif 131 / 126 40% 1 12.05.2027 -
Mpho Khethang FC Diarra Actif 82 / 93 40% 1 11.05.2027 -
Kazunari Kita Real Sociedad Actif 103 / 103 40% 1 11.05.2027 -
Bosun Lawal Stoke City Actif 124 / 135 40% 2 07.05.2027 -
Welington Southampton Actif 132 / 127 40% 1 07.05.2027 -
Harrison Burrows Sheffield United Actif 128 / 127 40% 1 07.05.2027 -
Afriyie Sulemana WAFA Actif 82 / 89 40% 2 06.05.2027 -
Jack Currie Oxford United Actif 127 / 130 40% 2 06.05.2027 -
Kamaldeen Atiemo Wa All Stars Actif 105 / 107 40% 2 06.05.2027 -
Rivaldo Mkhize Black Aces Actif 81 / 85 40% 1 06.05.2027 -
Brooke Norton-Cuffy Hull City Actif 143 / 141 40% 4 03.05.2027 -
Shea Charles Southampton Actif 135 / 142 40% 2 03.05.2027 -
Leighton Clarkson Blackpool Actif 123 / 126 40% 1 03.05.2027 -
Ezra Mayers West Ham United Actif 122 / 122 40% 2 02.05.2027 -
Samuele di Benedetto Twente Actif 109 / 123 40% 1 02.05.2027 -
Teboho Mokoena Black Aces Actif 89 / 88 40% 1 02.05.2027 -
Gonçalo Oliveira Benfica Actif 105 / 115 40% 2 28.04.2027 -
Tommaso Cecotti Carpi Actif 89 / 95 40% 1 27.04.2027 -
Mustapha Jawad Kano Pillars Actif 96 / 95 40% 1 26.04.2027 -
Dennis Cirkin Queens Park Rangers Actif 126 / 135 40% 2 24.04.2027 -
Moussa Baradji Blackburn Rovers Actif 123 / 123 40% 4 23.04.2027 -
Enrico Delprato Parma Actif 143 / 131 40% 1 23.04.2027 -
Lee Buchanan Sheffield Wednesday Actif 125 / 118 40% 1 23.04.2027 -
Tiago Freitas Benfica Actif 110 / 117 40% 3 22.04.2027 -
Adilson Malanda Middlesbrough Actif 133 / 121 40% 1 20.04.2027 -
Jacob Greaves Ipswich Town Actif 137 / 137 40% 1 20.04.2027 -
Habib Diarra Sunderland Actif 136 / 145 40% 2 19.04.2027 -
Alfie Doughty Millwall Actif 129 / 122 40% 2 18.04.2027 -
Chibueze Oputa Rangers International Actif 80 / 97 40% 1 16.04.2027 -
Nicolas Madsen Queens Park Rangers Actif 125 / 122 40% 3 15.04.2027 -
Olalekan Adeleke Remo Stars Actif 88 / 86 40% 1 12.04.2027 -
Jonathan Varane Queens Park Rangers Actif 124 / 120 40% 1 04.04.2027 -
David Ozoh Derby County Actif 117 / 131 40% 1 04.04.2027 -
Alessandro Zoboletti Sambenedettese Actif 88 / 100 40% 1 03.04.2027 -
Jayden Bogle Leeds United Actif 144 / 142 40% 1 28.03.2027 -
Caspar Jander Southampton Actif 130 / 131 40% 2 26.03.2027 -
Godwin Oham Warri Wolves Actif 88 / 85 40% 1 25.03.2027 -
Pelle Mattsson Norwich City Actif 118 / 126 40% 1 24.03.2027 -
Terry Devlin Portsmouth Actif 121 / 113 40% 1 24.03.2027 -
Japhet Tanganga Sheffield United Actif 127 / 138 40% 3 23.03.2027 -
Florentino Luís Ipswich Town Actif 137 / 132 40% 1 23.03.2027 -
Cemran Dansin Orlando Pirates Actif 102 / 121 40% 1 19.03.2027 -
Cheick Doucouré Crystal Palace Actif 137 / 144 40% 1 17.03.2027 -